Time;durP1;ratioP1;P1;durP2;ratioP2;P2;SDS_P1;SDS_P2;PMS_P1;PMS_P2;Temp;Humidity;BMP_temperature;BMP_pressure;BME280_temperature;BME280_humidity;BME280_pressure;Samples;Min_cycle;Max_cycle;Signal;HPM_P1;HPM_P2
2022/05/29 00:01:32;;;;;;;6.38;2.60;;;;;;;;;;4988295;28;20329;-71
2022/05/29 00:03:57;;;;;;;4.18;2.75;;;;;;;;;;4989920;28;20036;-71
2022/05/29 00:06:23;;;;;;;5.10;2.90;;;;;;;;;;5009950;28;20542;-71
2022/05/29 00:08:48;;;;;;;6.60;2.53;;;;;;;;;;4995881;28;20030;-71
2022/05/29 00:11:14;;;;;;;6.88;3.22;;;;;;;;;;4997102;28;20563;-71
2022/05/29 00:13:40;;;;;;;7.22;3.25;;;;;;;;;;5003958;28;21236;-71
2022/05/29 00:16:05;;;;;;;6.28;2.90;;;;;;;;;;4997388;28;20084;-71
2022/05/29 00:18:31;;;;;;;7.93;3.38;;;;;;;;;;4998003;28;20495;-71
2022/05/29 00:20:58;;;;;;;5.40;2.60;;;;;;;;;;5001328;28;20026;-71
2022/05/29 00:23:24;;;;;;;4.50;3.00;;;;;;;;;;5005840;28;20073;-70
2022/05/29 00:25:51;;;;;;;7.38;2.88;;;;;;;;;;4993646;28;20132;-70
2022/05/29 00:28:16;;;;;;;7.97;3.08;;;;;;;;;;4987257;28;20026;-70
2022/05/29 00:30:41;;;;;;;7.15;2.95;;;;;;;;;;4997391;28;20022;-71
2022/05/29 00:33:07;;;;;;;7.50;2.65;;;;;;;;;;4997070;28;20014;-71
2022/05/29 00:35:33;;;;;;;11.23;3.00;;;;;;;;;;4997520;28;20019;-71
2022/05/29 00:37:59;;;;;;;8.93;3.33;;;;;;;;;;4996093;28;20029;-70
2022/05/29 00:40:30;;;;;;;12.15;3.00;;;;;;;;;;4994302;28;20029;-70
2022/05/29 00:42:56;;;;;;;5.22;2.80;;;;;;;;;;4994515;28;20137;-70
2022/05/29 00:45:21;;;;;;;8.02;2.50;;;;;;;;;;4998548;28;20101;-70
2022/05/29 00:47:47;;;;;;;5.22;3.10;;;;;;;;;;4991288;28;20014;-71
2022/05/29 00:50:13;;;;;;;28.75;3.95;;;;;;;;;;4995050;28;20508;-71
2022/05/29 00:52:38;;;;;;;7.90;3.13;;;;;;;;;;4989634;28;20032;-70
2022/05/29 00:55:12;;;;;;;8.13;3.00;;;;;;;;;;4998552;28;20108;-71
2022/05/29 00:57:37;;;;;;;;;;;;;;;;;;5001904;28;20465;-70
2022/05/29 01:00:07;;;;;;;8.98;2.97;;;;;;;;;;4995399;28;20004;-71
2022/05/29 01:02:32;;;;;;;8.73;3.20;;;;;;;;;;4995369;28;20514;-70
2022/05/29 01:04:58;;;;;;;14.45;2.72;;;;;;;;;;4999053;28;20022;-70
2022/05/29 01:07:24;;;;;;;8.90;2.50;;;;;;;;;;5002114;28;20116;-71
2022/05/29 01:09:50;;;;;;;6.50;2.88;;;;;;;;;;4997437;28;20053;-71
2022/05/29 01:12:27;;;;;;;5.13;2.70;;;;;;;;;;4997352;28;20021;-70
2022/05/29 01:15:10;;;;;;;8.52;3.92;;;;;;;;;;4995169;28;20021;-70
2022/05/29 01:17:47;;;;;;;6.60;2.92;;;;;;;;;;5001896;28;20061;-70
2022/05/29 01:20:24;;;;;;;14.77;3.60;;;;;;;;;;5000499;28;20033;-71
2022/05/29 01:22:49;;;;;;;10.20;3.28;;;;;;;;;;4980726;28;20026;-70
2022/05/29 01:25:14;;;;;;;4.70;2.83;;;;;;;;;;4996497;28;20346;-71
2022/05/29 01:27:40;;;;;;;8.13;3.40;;;;;;;;;;4998854;28;20267;-70
2022/05/29 01:30:24;;;;;;;11.25;2.83;;;;;;;;;;4999418;28;20370;-71
2022/05/29 01:32:52;;;;;;;8.30;3.65;;;;;;;;;;5000979;28;20034;-70
2022/05/29 01:35:32;;;;;;;9.13;2.78;;;;;;;;;;4994502;28;20022;-71
2022/05/29 01:37:57;;;;;;;7.07;3.00;;;;;;;;;;4992883;28;20626;-71
2022/05/29 01:40:28;;;;;;;8.63;3.58;;;;;;;;;;4994764;28;20052;-70
2022/05/29 01:42:57;;;;;;;9.60;3.10;;;;;;;;;;4995820;28;20601;-71
2022/05/29 01:45:28;;;;;;;9.30;3.65;;;;;;;;;;4994863;28;20038;-71
2022/05/29 01:48:07;;;;;;;9.95;3.63;;;;;;;;;;4995225;28;20031;-71
2022/05/29 01:50:40;;;;;;;8.45;4.50;;;;;;;;;;4997787;28;20430;-71
2022/05/29 01:53:10;;;;;;;11.00;3.92;;;;;;;;;;4995492;28;20026;-71
2022/05/29 01:55:40;;;;;;;13.77;3.63;;;;;;;;;;4992446;28;20037;-71
2022/05/29 01:58:08;;;;;;;13.20;3.35;;;;;;;;;;4996337;28;20023;-71
2022/05/29 02:00:33;;;;;;;9.75;3.80;;;;;;;;;;4997507;28;20057;-71
2022/05/29 02:03:02;;;;;;;6.70;3.17;;;;;;;;;;4991496;28;20117;-71
2022/05/29 02:05:29;;;;;;;5.05;3.83;;;;;;;;;;4994536;28;20026;-71
2022/05/29 02:08:01;;;;;;;6.38;3.13;;;;;;;;;;4992577;28;20025;-71
2022/05/29 02:10:29;;;;;;;6.85;3.38;;;;;;;;;;4991881;28;20034;-71
2022/05/29 02:13:09;;;;;;;8.85;4.15;;;;;;;;;;4993068;28;20362;-71
2022/05/29 02:15:37;;;;;;;6.55;3.33;;;;;;;;;;4997860;28;20022;-71
2022/05/29 02:18:05;;;;;;;6.57;3.95;;;;;;;;;;4995818;28;20033;-71
2022/05/29 02:20:34;;;;;;;8.32;3.90;;;;;;;;;;4994676;28;20025;-71
2022/05/29 02:23:02;;;;;;;8.88;4.40;;;;;;;;;;4994978;28;20353;-71
2022/05/29 02:25:28;;;;;;;8.70;3.70;;;;;;;;;;4997689;28;20109;-71
2022/05/29 02:28:05;;;;;;;5.90;3.53;;;;;;;;;;4998135;28;20492;-70
2022/05/29 02:30:35;;;;;;;7.40;3.97;;;;;;;;;;5003444;28;20034;-70
2022/05/29 02:33:07;;;;;;;8.60;3.33;;;;;;;;;;4999052;28;20116;-70
2022/05/29 02:35:35;;;;;;;5.47;3.42;;;;;;;;;;5002939;28;20026;-70
2022/05/29 02:38:00;;;;;;;7.75;3.35;;;;;;;;;;5006161;28;20054;-71
2022/05/29 02:40:31;;;;;;;13.63;4.00;;;;;;;;;;4999721;28;20141;-71
2022/05/29 02:43:03;;;;;;;12.68;3.38;;;;;;;;;;4997171;28;20112;-71
2022/05/29 02:45:28;;;;;;;5.85;3.30;;;;;;;;;;5011088;28;20433;-71
2022/05/29 02:48:01;;;;;;;19.08;3.85;;;;;;;;;;4998204;28;20536;-71
2022/05/29 02:50:26;;;;;;;9.32;2.97;;;;;;;;;;5005622;28;20037;-71
2022/05/29 02:52:52;;;;;;;10.75;3.55;;;;;;;;;;5004334;28;20065;-70
2022/05/29 02:55:18;;;;;;;8.40;3.53;;;;;;;;;;4985534;28;20467;-70
2022/05/29 02:57:44;;;;;;;9.95;3.22;;;;;;;;;;4999402;28;20022;-71
2022/05/29 03:00:13;;;;;;;9.43;3.47;;;;;;;;;;5003628;28;20461;-70
2022/05/29 03:02:44;;;;;;;8.73;3.58;;;;;;;;;;5015375;28;20095;-70
2022/05/29 03:05:28;;;;;;;7.20;3.45;;;;;;;;;;4989625;28;20053;-71
2022/05/29 03:08:03;;;;;;;7.70;3.65;;;;;;;;;;4989202;28;20029;-71
2022/05/29 03:10:48;;;;;;;7.85;3.33;;;;;;;;;;4997997;28;20028;-71
2022/05/29 03:13:26;;;;;;;6.93;3.13;;;;;;;;;;4999987;28;20026;-71
2022/05/29 03:15:51;;;;;;;8.60;3.10;;;;;;;;;;5003917;28;20030;-70
2022/05/29 03:18:24;;;;;;;7.95;3.25;;;;;;;;;;5002829;28;20028;-71
2022/05/29 03:20:58;;;;;;;7.95;3.70;;;;;;;;;;5014175;28;20026;-71
2022/05/29 03:23:42;;;;;;;10.35;3.33;;;;;;;;;;5005418;28;20097;-71
2022/05/29 03:26:15;;;;;;;11.75;3.55;;;;;;;;;;4995035;28;20042;-71
2022/05/29 03:29:03;;;;;;;11.65;3.38;;;;;;;;;;5001222;28;20916;-71
2022/05/29 03:31:29;;;;;;;10.18;3.80;;;;;;;;;;4979017;28;20037;-71
2022/05/29 03:33:55;;;;;;;7.20;3.38;;;;;;;;;;4999045;28;20101;-71
2022/05/29 03:36:21;;;;;;;9.57;3.97;;;;;;;;;;4975693;28;20033;-71
2022/05/29 03:38:46;;;;;;;11.10;3.70;;;;;;;;;;4994664;28;20022;-71
2022/05/29 03:41:27;;;;;;;11.10;3.67;;;;;;;;;;5000900;28;20033;-71
2022/05/29 03:43:52;;;;;;;14.88;3.55;;;;;;;;;;4995411;28;20267;-71
2022/05/29 03:46:18;;;;;;;6.57;3.70;;;;;;;;;;4994669;28;20213;-71
2022/05/29 03:48:43;;;;;;;14.47;4.00;;;;;;;;;;5017402;28;20316;-71
2022/05/29 03:51:08;;;;;;;8.10;3.20;;;;;;;;;;5000904;28;20271;-71
2022/05/29 03:53:33;;;;;;;6.40;4.10;;;;;;;;;;4999401;28;20070;-72
2022/05/29 03:55:59;;;;;;;10.88;3.63;;;;;;;;;;4997732;28;20105;-71
2022/05/29 03:58:24;;;;;;;18.57;3.97;;;;;;;;;;4996855;28;20042;-71
2022/05/29 04:00:49;;;;;;;6.65;3.45;;;;;;;;;;4998405;28;20746;-72
2022/05/29 04:03:15;;;;;;;8.40;3.67;;;;;;;;;;5000162;28;20034;-72
2022/05/29 04:05:40;;;;;;;8.15;3.80;;;;;;;;;;5000820;28;20271;-71
2022/05/29 04:13:37;;;;;;;7.25;3.72;;;;;;;;;;5000534;28;20036;-72
2022/05/29 04:16:03;;;;;;;9.50;3.80;;;;;;;;;;4995757;28;20026;-72
2022/05/29 04:18:28;;;;;;;10.80;3.80;;;;;;;;;;4999035;28;20076;-71
2022/05/29 04:20:53;;;;;;;9.73;4.43;;;;;;;;;;4998522;28;20025;-72
2022/05/29 04:23:19;;;;;;;11.07;4.00;;;;;;;;;;4996373;28;20271;-72
2022/05/29 04:25:44;;;;;;;9.05;3.13;;;;;;;;;;4998745;28;20275;-72
2022/05/29 04:28:09;;;;;;;8.35;3.47;;;;;;;;;;4995074;28;20393;-72
2022/05/29 04:30:35;;;;;;;7.72;3.40;;;;;;;;;;4998415;28;20037;-72
2022/05/29 04:33:00;;;;;;;5.60;2.97;;;;;;;;;;4997546;28;20026;-71
2022/05/29 04:35:25;;;;;;;10.73;3.22;;;;;;;;;;5001401;28;20275;-72
2022/05/29 04:37:51;;;;;;;8.75;3.10;;;;;;;;;;4983372;28;20049;-72
2022/05/29 04:40:16;;;;;;;4.78;3.10;;;;;;;;;;4999611;28;20045;-71
2022/05/29 04:42:41;;;;;;;7.10;2.60;;;;;;;;;;4997820;28;20080;-72
2022/05/29 04:45:07;;;;;;;9.88;3.50;;;;;;;;;;5006706;28;20104;-72
2022/05/29 04:47:33;;;;;;;8.95;3.50;;;;;;;;;;4997996;28;20058;-72
2022/05/29 04:49:58;;;;;;;6.82;3.03;;;;;;;;;;4999077;28;20036;-72
2022/05/29 04:52:23;;;;;;;5.28;2.90;;;;;;;;;;5004119;28;20579;-72
2022/05/29 04:54:49;;;;;;;4.70;2.60;;;;;;;;;;4998374;28;20538;-72
2022/05/29 04:57:14;;;;;;;5.60;3.15;;;;;;;;;;5004343;28;20274;-71
2022/05/29 04:59:39;;;;;;;8.73;3.03;;;;;;;;;;5011757;28;20366;-72
2022/05/29 05:02:04;;;;;;;8.02;3.38;;;;;;;;;;4999934;28;20282;-71
2022/05/29 05:04:30;;;;;;;10.25;3.00;;;;;;;;;;4995926;28;20036;-72
2022/05/29 05:06:55;;;;;;;8.90;3.40;;;;;;;;;;4994380;28;20557;-71
2022/05/29 05:09:21;;;;;;;7.95;2.67;;;;;;;;;;4997829;28;20286;-72
2022/05/29 05:11:46;;;;;;;6.30;2.97;;;;;;;;;;4994856;28;20041;-71
2022/05/29 05:14:11;;;;;;;6.63;2.83;;;;;;;;;;5001244;28;20322;-71
2022/05/29 05:16:36;;;;;;;6.03;2.70;;;;;;;;;;4997514;28;20275;-71
2022/05/29 05:19:01;;;;;;;8.02;2.83;;;;;;;;;;4993687;28;20371;-71
2022/05/29 05:21:27;;;;;;;6.50;3.03;;;;;;;;;;4997747;28;20041;-71
2022/05/29 05:23:52;;;;;;;8.38;2.63;;;;;;;;;;4999815;28;20753;-71
2022/05/29 05:26:19;;;;;;;5.83;2.80;;;;;;;;;;4998003;28;20080;-71
2022/05/29 05:28:44;;;;;;;5.72;3.33;;;;;;;;;;5002827;28;20278;-71
2022/05/29 05:31:09;;;;;;;5.15;2.95;;;;;;;;;;4984614;28;20139;-71
2022/05/29 05:33:34;;;;;;;5.80;3.22;;;;;;;;;;5003888;28;20556;-71
2022/05/29 05:35:59;;;;;;;6.87;2.30;;;;;;;;;;5002136;28;20466;-71
2022/05/29 05:38:24;;;;;;;5.28;2.45;;;;;;;;;;4998002;28;20276;-71
2022/05/29 05:40:50;;;;;;;5.93;2.20;;;;;;;;;;5001999;28;20068;-72
2022/05/29 05:43:15;;;;;;;2.63;2.40;;;;;;;;;;4999003;28;20033;-72
2022/05/29 05:45:41;;;;;;;4.05;1.80;;;;;;;;;;5000709;28;20093;-72
2022/05/29 05:48:07;;;;;;;4.50;1.75;;;;;;;;;;4998242;28;20037;-72
2022/05/29 05:50:32;;;;;;;3.00;2.08;;;;;;;;;;5000789;28;20048;-73
2022/05/29 05:52:57;;;;;;;4.20;1.73;;;;;;;;;;5000556;28;20368;-72
2022/05/29 05:55:22;;;;;;;2.50;2.07;;;;;;;;;;4999708;28;20291;-71
2022/05/29 05:57:48;;;;;;;5.82;2.30;;;;;;;;;;4998979;28;20321;-72
2022/05/29 06:00:14;;;;;;;6.07;1.90;;;;;;;;;;5003348;28;20033;-75
2022/05/29 06:02:40;;;;;;;6.47;2.10;;;;;;;;;;5004977;28;20140;-72
2022/05/29 06:05:05;;;;;;;3.13;2.10;;;;;;;;;;5000731;28;20136;-73
2022/05/29 06:07:30;;;;;;;7.03;2.58;;;;;;;;;;4999633;28;20038;-73
2022/05/29 06:09:55;;;;;;;10.70;5.03;;;;;;;;;;5000341;28;20030;-73
2022/05/29 06:12:21;;;;;;;6.80;3.15;;;;;;;;;;5004690;28;20023;-73
2022/05/29 06:14:47;;;;;;;7.97;1.98;;;;;;;;;;5002232;28;20017;-74
2022/05/29 06:17:12;;;;;;;8.48;3.33;;;;;;;;;;4991878;28;20014;-73
2022/05/29 06:19:37;;;;;;;4.80;2.20;;;;;;;;;;5001831;28;20050;-73
2022/05/29 06:22:02;;;;;;;4.70;2.17;;;;;;;;;;4998935;28;20037;-73
2022/05/29 06:24:27;;;;;;;3.22;2.30;;;;;;;;;;5002707;28;20271;-73
2022/05/29 06:26:56;;;;;;;2.10;1.90;;;;;;;;;;4998715;28;20088;-73
2022/05/29 06:29:21;;;;;;;8.88;6.22;;;;;;;;;;4993357;28;20603;-73
2022/05/29 06:31:46;;;;;;;17.23;7.38;;;;;;;;;;5012908;28;20017;-73
2022/05/29 06:34:11;;;;;;;4.35;2.20;;;;;;;;;;5010125;28;20017;-73
2022/05/29 06:36:37;;;;;;;5.77;3.90;;;;;;;;;;5013550;28;20021;-72
2022/05/29 06:39:02;;;;;;;6.50;3.15;;;;;;;;;;4999062;28;20659;-72
2022/05/29 06:41:29;;;;;;;6.95;3.33;;;;;;;;;;5004483;28;20060;-72
2022/05/29 06:43:54;;;;;;;3.83;2.70;;;;;;;;;;5004541;28;20022;-73
2022/05/29 06:46:20;;;;;;;6.90;3.08;;;;;;;;;;5010114;28;20033;-71
2022/05/29 06:48:45;;;;;;;6.05;3.03;;;;;;;;;;4999568;28;20445;-71
2022/05/29 06:51:12;;;;;;;4.03;2.88;;;;;;;;;;5015071;28;20064;-73
2022/05/29 06:53:38;;;;;;;6.13;2.95;;;;;;;;;;5006326;28;20104;-73
2022/05/29 06:56:03;;;;;;;4.35;2.85;;;;;;;;;;5003618;28;20129;-72
2022/05/29 06:58:28;;;;;;;6.30;3.40;;;;;;;;;;5006709;28;20029;-73
2022/05/29 07:09:05;;;;;;;7.00;3.63;;;;;;;;;;4995198;28;20037;-73
2022/05/29 07:11:34;;;;;;;11.65;3.88;;;;;;;;;;4998854;28;20030;-73
2022/05/29 07:13:59;;;;;;;12.82;3.75;;;;;;;;;;4998953;28;20125;-73
2022/05/29 07:16:24;;;;;;;10.20;4.07;;;;;;;;;;4999464;28;20046;-74
2022/05/29 07:18:50;;;;;;;10.27;3.88;;;;;;;;;;5003247;28;20049;-71
2022/05/29 07:21:16;;;;;;;12.38;4.05;;;;;;;;;;4999810;28;20523;-73
2022/05/29 07:23:41;;;;;;;8.50;3.70;;;;;;;;;;5001438;28;20040;-75
2022/05/29 07:26:06;;;;;;;8.03;4.43;;;;;;;;;;5000405;28;20797;-70
2022/05/29 07:28:31;;;;;;;10.40;4.00;;;;;;;;;;4999509;28;20276;-75
2022/05/29 07:30:56;;;;;;;10.60;3.90;;;;;;;;;;4999413;28;20479;-77
2022/05/29 07:33:23;;;;;;;5.55;3.38;;;;;;;;;;4998500;28;20112;-75
2022/05/29 07:35:48;;;;;;;9.20;3.33;;;;;;;;;;4995931;28;20018;-75
2022/05/29 07:38:13;;;;;;;10.20;4.43;;;;;;;;;;4995034;28;20040;-78
2022/05/29 07:40:38;;;;;;;5.72;2.70;;;;;;;;;;5002040;28;20283;-75
2022/05/29 07:43:19;;;;;;;10.55;2.72;;;;;;;;;;5000599;28;20029;-72
2022/05/29 07:45:46;;;;;;;5.95;3.03;;;;;;;;;;4998953;28;20087;-72
2022/05/29 07:48:11;;;;;;;4.53;3.13;;;;;;;;;;4997842;28;20065;-72
2022/05/29 07:50:36;;;;;;;6.78;3.08;;;;;;;;;;5000881;28;20113;-72
2022/05/29 07:53:02;;;;;;;5.65;3.20;;;;;;;;;;4999289;28;20022;-72
2022/05/29 07:55:27;;;;;;;5.78;2.30;;;;;;;;;;4995714;28;20075;-73
2022/05/29 07:57:53;;;;;;;5.72;2.15;;;;;;;;;;4997617;28;20061;-73
2022/05/29 08:00:19;;;;;;;6.25;2.28;;;;;;;;;;4999347;28;20018;-72
2022/05/29 08:02:44;;;;;;;6.97;2.20;;;;;;;;;;4996300;28;20477;-72
2022/05/29 08:05:11;;;;;;;3.57;1.63;;;;;;;;;;4996367;28;20062;-73
2022/05/29 08:07:37;;;;;;;3.20;1.35;;;;;;;;;;4998960;28;20056;-72
2022/05/29 08:10:02;;;;;;;5.35;1.70;;;;;;;;;;5002036;28;20152;-72
2022/05/29 08:12:28;;;;;;;7.53;2.00;;;;;;;;;;5000503;28;20112;-72
2022/05/29 08:14:53;;;;;;;6.05;2.10;;;;;;;;;;4995312;28;20068;-74
2022/05/29 08:17:18;;;;;;;5.85;2.42;;;;;;;;;;4998456;28;20033;-72
2022/05/29 08:19:43;;;;;;;4.35;2.33;;;;;;;;;;5001864;28;20497;-72
2022/05/29 08:22:08;;;;;;;4.82;2.20;;;;;;;;;;4996794;28;20784;-71
2022/05/29 08:30:37;;;;;;;5.30;2.53;;;;;;;;;;4991472;28;20784;-71
2022/05/29 08:33:03;;;;;;;3.13;2.70;;;;;;;;;;5000561;28;20075;-70
2022/05/29 08:35:29;;;;;;;6.18;2.58;;;;;;;;;;5001400;28;20029;-70
2022/05/29 08:37:55;;;;;;;5.95;2.70;;;;;;;;;;4996963;28;20029;-71
2022/05/29 08:40:20;;;;;;;6.43;2.60;;;;;;;;;;5000052;28;20026;-71
2022/05/29 08:42:45;;;;;;;6.53;2.40;;;;;;;;;;5000243;28;20583;-70
2022/05/29 08:45:15;;;;;;;9.38;2.55;;;;;;;;;;4997567;28;20022;-71
2022/05/29 08:47:41;;;;;;;9.05;2.78;;;;;;;;;;4999297;28;20460;-70
2022/05/29 08:50:08;;;;;;;3.80;2.42;;;;;;;;;;4999113;28;20045;-70
2022/05/29 08:52:52;;;;;;;5.78;2.40;;;;;;;;;;4998294;28;20026;-70
2022/05/29 08:55:30;;;;;;;8.30;2.92;;;;;;;;;;4998029;28;20013;-70
2022/05/29 08:57:55;;;;;;;5.22;2.60;;;;;;;;;;4997062;28;20511;-70
2022/05/29 09:00:39;;;;;;;6.28;3.13;;;;;;;;;;4996994;28;20073;-71
2022/05/29 09:03:11;;;;;;;7.35;2.78;;;;;;;;;;4993530;28;20033;-71
2022/05/29 09:05:42;;;;;;;5.30;2.80;;;;;;;;;;5003290;28;20121;-72
2022/05/29 09:08:16;;;;;;;7.63;2.75;;;;;;;;;;5000212;28;20025;-71
2022/05/29 09:10:43;;;;;;;9.02;3.33;;;;;;;;;;4994970;28;20067;-71
2022/05/29 09:13:17;;;;;;;4.85;2.50;;;;;;;;;;4999789;28;20417;-71
2022/05/29 09:15:44;;;;;;;10.25;3.30;;;;;;;;;;4994327;28;20030;-71
2022/05/29 09:18:12;;;;;;;4.25;3.00;;;;;;;;;;4994923;28;20108;-71
2022/05/29 09:20:46;;;;;;;4.45;3.20;;;;;;;;;;5000458;28;20041;-71
2022/05/29 09:23:11;;;;;;;;;;;;;;;;;;4999823;28;20030;-72
2022/05/29 09:25:37;;;;;;;5.88;3.30;;;;;;;;;;5005137;28;19925;-71
2022/05/29 09:28:10;;;;;;;10.20;3.10;;;;;;;;;;4994759;28;20365;-71
2022/05/29 09:30:35;;;;;;;3.80;2.63;;;;;;;;;;4994507;28;20036;-71
2022/05/29 09:33:02;;;;;;;7.50;3.13;;;;;;;;;;4995447;28;20022;-71
2022/05/29 09:35:46;;;;;;;8.95;2.45;;;;;;;;;;4996226;28;20510;-71
2022/05/29 09:38:14;;;;;;;3.95;2.58;;;;;;;;;;4988779;28;20045;-71
2022/05/29 09:40:42;;;;;;;5.20;2.92;;;;;;;;;;4993924;28;20065;-71
2022/05/29 09:43:18;;;;;;;7.70;3.00;;;;;;;;;;4994908;28;20084;-71
2022/05/29 09:45:43;;;;;;;5.78;3.13;;;;;;;;;;4996310;28;20052;-71
2022/05/29 09:51:18;;;;;;;8.95;2.72;;;;;;;;;;4995257;28;20041;-73
2022/05/29 09:53:45;;;;;;;6.47;3.22;;;;;;;;;;4998140;28;20539;-71
2022/05/29 09:56:10;;;;;;;9.68;2.10;;;;;;;;;;4995631;28;20045;-72
2022/05/29 09:58:39;;;;;;;4.87;2.00;;;;;;;;;;4997059;28;20398;-70
2022/05/29 10:01:05;;;;;;;4.95;2.10;;;;;;;;;;4997713;28;20298;-73
2022/05/29 10:03:37;;;;;;;2.53;1.55;;;;;;;;;;4996097;28;20022;-70
2022/05/29 10:06:12;;;;;;;6.05;1.85;;;;;;;;;;4997047;28;20121;-70
2022/05/29 10:08:38;;;;;;;6.30;1.88;;;;;;;;;;4998978;28;20698;-70
2022/05/29 10:11:22;;;;;;;3.20;1.40;;;;;;;;;;5001103;28;20068;-73
2022/05/29 10:13:48;;;;;;;3.08;1.45;;;;;;;;;;4996341;28;20729;-71
2022/05/29 10:16:28;;;;;;;5.75;1.10;;;;;;;;;;4997359;28;20025;-71
2022/05/29 10:18:53;;;;;;;2.78;0.90;;;;;;;;;;4996934;28;20033;-71
2022/05/29 10:21:23;;;;;;;1.10;0.70;;;;;;;;;;5000088;28;20029;-71
2022/05/29 10:23:50;;;;;;;2.75;0.70;;;;;;;;;;4992472;28;20041;-69
2022/05/29 10:26:32;;;;;;;2.50;0.93;;;;;;;;;;4996056;28;20109;-71
2022/05/29 10:28:58;;;;;;;1.40;0.93;;;;;;;;;;4990410;28;20104;-70
2022/05/29 10:31:25;;;;;;;1.48;0.63;;;;;;;;;;4993252;28;20105;-70
2022/05/29 10:34:07;;;;;;;1.75;1.20;;;;;;;;;;4996163;28;20019;-72
2022/05/29 10:36:33;;;;;;;2.67;1.00;;;;;;;;;;4989470;28;20099;-75
2022/05/29 10:39:09;;;;;;;1.75;0.70;;;;;;;;;;4994776;28;20042;-70
2022/05/29 10:41:35;;;;;;;2.35;1.10;;;;;;;;;;4989594;28;20044;-71
2022/05/29 10:44:01;;;;;;;1.25;0.88;;;;;;;;;;4994370;28;20032;-70
2022/05/29 10:46:46;;;;;;;2.40;0.80;;;;;;;;;;5002140;28;20030;-71
2022/05/29 10:49:25;;;;;;;0.75;0.75;;;;;;;;;;4973176;28;20081;-71
2022/05/29 10:52:05;;;;;;;3.72;1.08;;;;;;;;;;5007376;28;20018;-69
2022/05/29 10:54:49;;;;;;;2.47;1.10;;;;;;;;;;5006551;28;20590;-70
2022/05/29 10:57:20;;;;;;;1.88;1.10;;;;;;;;;;5005298;28;20030;-70
2022/05/29 10:59:51;;;;;;;2.50;1.20;;;;;;;;;;4998975;28;20137;-70
2022/05/29 11:05:19;;;;;;;3.65;1.30;;;;;;;;;;5001282;28;20060;-72
2022/05/29 11:08:00;;;;;;;6.35;1.50;;;;;;;;;;4992794;28;20367;-69
2022/05/29 11:10:28;;;;;;;5.07;1.10;;;;;;;;;;4999902;28;20054;-71
2022/05/29 11:13:14;;;;;;;2.30;0.68;;;;;;;;;;4999012;28;20026;-71
2022/05/29 11:15:54;;;;;;;1.88;0.90;;;;;;;;;;4995262;28;20467;-73
2022/05/29 11:18:31;;;;;;;1.02;0.70;;;;;;;;;;4999063;28;20176;-72
2022/05/29 11:21:15;;;;;;;5.65;1.25;;;;;;;;;;4996142;28;20018;-71
2022/05/29 11:23:55;;;;;;;5.40;1.00;;;;;;;;;;5003210;28;20125;-74
2022/05/29 11:26:30;;;;;;;2.55;1.13;;;;;;;;;;4994691;28;20069;-73
2022/05/29 11:29:08;;;;;;;3.03;1.25;;;;;;;;;;4995685;28;20036;-71
2022/05/29 11:31:42;;;;;;;3.10;1.30;;;;;;;;;;4993989;28;20022;-71
2022/05/29 11:34:31;;;;;;;4.68;1.70;;;;;;;;;;4995190;28;20218;-71
2022/05/29 11:36:56;;;;;;;2.72;1.30;;;;;;;;;;4996880;28;20587;-71
2022/05/29 11:39:28;;;;;;;4.60;1.48;;;;;;;;;;4996628;28;20021;-71
2022/05/29 11:41:56;;;;;;;4.93;1.75;;;;;;;;;;5000891;28;20096;-71
2022/05/29 11:44:21;;;;;;;1.65;1.55;;;;;;;;;;5003778;28;20026;-71
2022/05/29 11:52:22;;;;;;;5.25;1.95;;;;;;;;;;4998502;28;20081;-71
2022/05/29 11:55:03;;;;;;;2.15;1.70;;;;;;;;;;4997430;28;20026;-71
2022/05/29 11:57:31;;;;;;;2.33;1.65;;;;;;;;;;4999542;28;20026;-71
2022/05/29 12:00:03;;;;;;;5.60;1.67;;;;;;;;;;4999527;28;20033;-71
2022/05/29 12:02:44;;;;;;;8.50;2.13;;;;;;;;;;4997066;28;20111;-71
2022/05/29 12:05:16;;;;;;;7.60;1.58;;;;;;;;;;4996228;28;20022;-72
2022/05/29 12:07:41;;;;;;;4.95;1.42;;;;;;;;;;4995373;28;20033;-73
2022/05/29 12:10:26;;;;;;;4.43;1.33;;;;;;;;;;5000738;28;20018;-71
2022/05/29 12:12:57;;;;;;;5.93;1.23;;;;;;;;;;4983045;28;20295;-71
2022/05/29 12:15:23;;;;;;;8.18;1.50;;;;;;;;;;4995399;28;20414;-74
2022/05/29 12:17:57;;;;;;;7.93;1.63;;;;;;;;;;4997244;28;20389;-71
2022/05/29 12:20:22;;;;;;;;;;;;;;;;;;5000895;28;20325;-72
2022/05/29 12:22:51;;;;;;;4.30;1.70;;;;;;;;;;4998978;28;19971;-73
2022/05/29 12:25:29;;;;;;;4.35;1.83;;;;;;;;;;4995237;28;20056;-71
2022/05/29 12:27:56;;;;;;;2.92;1.77;;;;;;;;;;4995308;28;20488;-72
2022/05/29 12:30:21;;;;;;;8.10;1.52;;;;;;;;;;5001889;28;20032;-72
2022/05/29 12:32:47;;;;;;;5.32;1.27;;;;;;;;;;4999117;28;20018;-72
2022/05/29 12:35:17;;;;;;;7.75;1.70;;;;;;;;;;4997292;28;20080;-72
2022/05/29 12:37:54;;;;;;;3.97;0.80;;;;;;;;;;4992073;28;20072;-72
2022/05/29 12:40:19;;;;;;;5.65;1.42;;;;;;;;;;5002887;28;20501;-76
2022/05/29 12:43:03;;;;;;;4.37;1.13;;;;;;;;;;4998989;28;20546;-73
2022/05/29 12:45:28;;;;;;;;;;;;;;;;;;5000668;28;20098;-72
2022/05/29 12:47:54;;;;;;;2.88;1.20;;;;;;;;;;5001358;28;20011;-72
2022/05/29 12:50:24;;;;;;;7.18;0.95;;;;;;;;;;4988032;28;20048;-72
2022/05/29 12:53:08;;;;;;;4.32;1.13;;;;;;;;;;5003675;28;20014;-71
2022/05/29 12:55:33;;;;;;;;;;;;;;;;;;5003662;28;20057;-71
2022/05/29 12:57:58;;;;;;;5.22;1.10;;;;;;;;;;4994685;28;19912;-71
2022/05/29 13:00:26;;;;;;;3.17;1.30;;;;;;;;;;4995934;28;20030;-71
2022/05/29 17:51:22;;;;;;;4.78;1.70;;;;;;;;;;4998558;28;20056;-71
2022/05/29 17:53:56;;;;;;;2.53;1.42;;;;;;;;;;4995697;28;20034;-72
2022/05/29 17:56:23;;;;;;;2.58;1.30;;;;;;;;;;4998744;28;20057;-73
2022/05/29 17:58:48;;;;;;;2.72;1.20;;;;;;;;;;4999764;28;20040;-71
2022/05/29 18:01:13;;;;;;;5.93;1.20;;;;;;;;;;4998327;28;20029;-73
2022/05/29 18:03:38;;;;;;;5.05;1.30;;;;;;;;;;4987571;28;20478;-71
2022/05/29 18:06:05;;;;;;;3.23;1.00;;;;;;;;;;4992988;28;20026;-71
2022/05/29 18:08:33;;;;;;;0.82;0.80;;;;;;;;;;4998602;28;20272;-71
2022/05/29 18:11:05;;;;;;;1.65;0.82;;;;;;;;;;5005805;28;20021;-71
2022/05/29 18:13:30;;;;;;;5.15;1.08;;;;;;;;;;5005131;28;20357;-71
2022/05/29 18:15:55;;;;;;;2.50;0.75;;;;;;;;;;4995494;28;20025;-71
2022/05/29 18:18:21;;;;;;;2.20;1.33;;;;;;;;;;4998445;28;20064;-69
2022/05/29 18:20:46;;;;;;;2.38;0.82;;;;;;;;;;4999852;28;20053;-71
2022/05/29 18:23:12;;;;;;;2.83;1.98;;;;;;;;;;4996726;28;20040;-71
2022/05/29 18:25:37;;;;;;;3.42;1.48;;;;;;;;;;4997410;28;20373;-72
2022/05/29 18:28:02;;;;;;;3.92;0.90;;;;;;;;;;4998069;28;20026;-72
2022/05/29 18:30:28;;;;;;;4.50;1.17;;;;;;;;;;4981016;28;20076;-71
2022/05/29 18:32:53;;;;;;;1.20;0.93;;;;;;;;;;4998844;28;20025;-70
2022/05/29 18:35:18;;;;;;;1.20;0.98;;;;;;;;;;5000663;28;20022;-70
2022/05/29 18:37:45;;;;;;;4.43;1.35;;;;;;;;;;4997138;28;20038;-71
2022/05/29 18:40:12;;;;;;;5.20;1.55;;;;;;;;;;4997425;28;20026;-70
2022/05/29 18:42:37;;;;;;;3.67;0.82;;;;;;;;;;4996521;28;20049;-70
2022/05/29 18:45:02;;;;;;;2.30;1.00;;;;;;;;;;4979974;28;20444;-70
2022/05/29 18:47:28;;;;;;;4.55;1.08;;;;;;;;;;4997802;28;20072;-70
2022/05/29 18:49:53;;;;;;;5.97;1.38;;;;;;;;;;4997057;28;20559;-70
2022/05/29 18:52:19;;;;;;;3.78;1.08;;;;;;;;;;5001487;28;20028;-70
2022/05/29 18:54:44;;;;;;;5.75;1.33;;;;;;;;;;4998784;28;20048;-70
2022/05/29 18:57:13;;;;;;;2.22;1.58;;;;;;;;;;5001356;28;20025;-70
2022/05/29 18:59:39;;;;;;;2.05;1.15;;;;;;;;;;5000624;28;20044;-70
2022/05/29 19:02:05;;;;;;;5.05;1.02;;;;;;;;;;5002307;28;20291;-70
2022/05/29 19:04:30;;;;;;;3.13;1.40;;;;;;;;;;5000971;28;20025;-70
2022/05/29 19:06:55;;;;;;;4.72;1.35;;;;;;;;;;5001960;28;20033;-70
2022/05/29 19:09:21;;;;;;;4.70;1.50;;;;;;;;;;4984066;28;20539;-70
2022/05/29 19:11:46;;;;;;;3.65;1.38;;;;;;;;;;5001020;28;20914;-70
2022/05/29 19:14:11;;;;;;;5.05;1.15;;;;;;;;;;4996541;28;20026;-70
2022/05/29 19:16:36;;;;;;;3.33;1.55;;;;;;;;;;4999070;28;20037;-71
2022/05/29 19:19:02;;;;;;;2.35;1.33;;;;;;;;;;4998284;28;20512;-70
2022/05/29 19:21:27;;;;;;;13.40;3.27;;;;;;;;;;4996655;28;20481;-70
2022/05/29 19:23:53;;;;;;;9.73;2.35;;;;;;;;;;4996624;28;20275;-70
2022/05/29 19:26:19;;;;;;;5.03;1.85;;;;;;;;;;4997305;28;20022;-70
2022/05/29 19:28:51;;;;;;;3.72;1.30;;;;;;;;;;4999610;28;20040;-69
2022/05/29 19:31:30;;;;;;;1.63;1.27;;;;;;;;;;5000354;28;20089;-70
2022/05/29 19:33:55;;;;;;;5.90;1.92;;;;;;;;;;4998898;28;20113;-70
2022/05/29 19:36:22;;;;;;;4.00;1.30;;;;;;;;;;4998866;28;20117;-70
2022/05/29 19:38:47;;;;;;;5.20;1.33;;;;;;;;;;5000717;28;20260;-70
2022/05/29 19:41:13;;;;;;;6.00;1.07;;;;;;;;;;4998942;28;20050;-70
2022/05/29 19:43:38;;;;;;;3.58;1.35;;;;;;;;;;4998262;28;20674;-70
2022/05/29 19:46:03;;;;;;;6.30;1.67;;;;;;;;;;5000021;28;20033;-70
2022/05/29 19:48:28;;;;;;;9.30;1.50;;;;;;;;;;5001661;28;20610;-70
2022/05/29 19:50:53;;;;;;;2.73;1.00;;;;;;;;;;4997494;28;20272;-71
2022/05/29 19:53:19;;;;;;;5.43;1.55;;;;;;;;;;4998983;28;20038;-70
2022/05/29 19:55:44;;;;;;;3.83;1.30;;;;;;;;;;4999695;28;20073;-72
2022/05/29 19:58:09;;;;;;;6.57;1.60;;;;;;;;;;4998759;28;20314;-69
2022/05/29 20:00:34;;;;;;;5.10;1.52;;;;;;;;;;4993169;28;20033;-70
2022/05/29 20:02:59;;;;;;;7.90;1.52;;;;;;;;;;4980235;28;20842;-70
2022/05/29 20:05:24;;;;;;;5.07;1.33;;;;;;;;;;4999381;28;20530;-70
2022/05/29 20:07:50;;;;;;;5.07;1.45;;;;;;;;;;4998611;28;20034;-71
2022/05/29 20:10:15;;;;;;;3.90;2.13;;;;;;;;;;4998769;28;20030;-70